createdAt,value
2018-04-15T00:00:13.576Z,14.57
2018-04-15T00:02:39.943Z,14.54
2018-04-15T00:05:06.196Z,14.50
2018-04-15T00:07:32.457Z,14.49
2018-04-15T00:09:58.771Z,14.43
2018-04-15T00:12:25.015Z,14.41
2018-04-15T00:14:51.267Z,14.41
2018-04-15T00:17:17.559Z,14.39
2018-04-15T00:19:44.475Z,14.35
2018-04-15T00:22:10.743Z,14.37
2018-04-15T00:24:37.020Z,14.41
2018-04-15T00:27:03.478Z,14.38
2018-04-15T00:29:29.732Z,14.37
2018-04-15T00:31:56.012Z,14.33
2018-04-15T00:34:22.271Z,14.32
2018-04-15T00:36:48.514Z,14.26
2018-04-15T00:39:14.812Z,14.21
2018-04-15T00:41:41.104Z,14.16
2018-04-15T00:44:07.353Z,14.11
2018-04-15T00:46:34.020Z,14.11
2018-04-15T00:49:00.276Z,14.08
2018-04-15T00:51:26.542Z,14.03
2018-04-15T00:54:05.012Z,14.00
2018-04-15T00:56:31.270Z,13.99
2018-04-15T00:58:57.751Z,13.98
2018-04-15T01:01:24.075Z,14.00
2018-04-15T01:03:50.352Z,14.02
2018-04-15T01:06:16.613Z,13.99
2018-04-15T01:08:42.912Z,14.00
2018-04-15T01:11:09.152Z,13.98
2018-04-15T01:13:35.410Z,13.96
2018-04-15T01:16:01.703Z,13.96
2018-04-15T01:18:27.953Z,13.97
2018-04-15T01:20:54.202Z,13.96
2018-04-15T01:23:20.487Z,13.98
2018-04-15T01:25:46.797Z,14.00
2018-04-15T01:28:13.064Z,13.99
2018-04-15T01:30:39.371Z,14.01
2018-04-15T01:33:05.652Z,14.04
2018-04-15T01:35:31.917Z,14.00
2018-04-15T01:37:58.208Z,13.96
2018-04-15T01:40:24.467Z,13.94
2018-04-15T01:42:50.728Z,13.93
2018-04-15T01:45:17.015Z,13.89
2018-04-15T01:47:43.304Z,13.89
2018-04-15T01:50:09.558Z,13.85
2018-04-15T01:52:35.929Z,13.83
2018-04-15T01:55:02.212Z,13.81
2018-04-15T01:57:28.589Z,13.82
2018-04-15T01:59:54.890Z,13.66
2018-04-15T02:02:21.156Z,13.58
2018-04-15T02:04:47.407Z,13.55
2018-04-15T02:07:13.679Z,13.50
2018-04-15T02:09:39.926Z,13.51
2018-04-15T02:12:06.189Z,13.55
2018-04-15T02:14:32.490Z,13.51
2018-04-15T02:16:58.759Z,13.52
2018-04-15T02:19:25.068Z,13.50
2018-04-15T02:21:51.363Z,13.50
2018-04-15T02:24:17.610Z,13.47
2018-04-15T02:26:43.878Z,13.44
2018-04-15T02:29:10.371Z,13.46
2018-04-15T02:31:36.632Z,13.44
2018-04-15T02:34:02.925Z,13.43
2018-04-15T02:36:29.231Z,13.38
2018-04-15T02:38:55.531Z,13.37
2018-04-15T02:41:21.822Z,13.36
2018-04-15T02:43:48.140Z,13.28
2018-04-15T02:46:14.427Z,13.26
2018-04-15T02:48:40.723Z,13.22
2018-04-15T02:51:07.334Z,13.23
2018-04-15T02:53:33.586Z,13.23
2018-04-15T02:55:59.880Z,13.16
2018-04-15T02:58:26.207Z,13.14
2018-04-15T03:00:52.492Z,13.11
2018-04-15T03:03:18.747Z,13.04
2018-04-15T03:05:45.122Z,13.02
2018-04-15T03:08:11.393Z,13.06
2018-04-15T03:10:37.719Z,13.00
2018-04-15T03:13:03.996Z,12.93
2018-04-15T03:15:30.292Z,12.83
2018-04-15T03:17:56.552Z,12.88
2018-04-15T03:20:22.836Z,12.97
2018-04-15T03:22:49.107Z,13.04
2018-04-15T03:25:15.364Z,12.93
2018-04-15T03:27:41.664Z,12.94
2018-04-15T03:30:07.917Z,12.91
2018-04-15T03:32:34.191Z,12.86
2018-04-15T03:35:00.483Z,12.87
2018-04-15T03:37:26.730Z,12.82
2018-04-15T03:39:53.250Z,12.67
2018-04-15T03:42:19.534Z,12.68
2018-04-15T03:44:45.796Z,12.67
2018-04-15T03:47:12.071Z,12.67
2018-04-15T03:49:38.358Z,12.67
2018-04-15T03:52:04.620Z,12.71
2018-04-15T03:54:30.900Z,12.71
2018-04-15T03:56:57.219Z,12.70
2018-04-15T03:59:23.487Z,12.70
2018-04-15T04:01:49.791Z,12.73
2018-04-15T04:04:16.076Z,12.70
2018-04-15T04:06:42.329Z,12.69
2018-04-15T04:09:08.589Z,12.68
2018-04-15T04:11:34.883Z,12.68
2018-04-15T04:14:01.144Z,12.67
2018-04-15T04:16:27.400Z,12.64
2018-04-15T04:19:05.778Z,12.50
2018-04-15T04:21:44.095Z,12.42
2018-04-15T04:24:22.499Z,12.43
2018-04-15T04:26:48.753Z,12.48
2018-04-15T04:29:15.033Z,12.41
2018-04-15T04:31:41.315Z,12.42
2018-04-15T04:34:07.567Z,12.47
2018-04-15T04:36:33.821Z,12.52
2018-04-15T04:39:00.318Z,12.55
2018-04-15T04:41:26.561Z,12.59
2018-04-15T04:43:52.799Z,12.63
2018-04-15T04:46:19.091Z,12.67
2018-04-15T04:48:45.347Z,12.67
2018-04-15T04:51:11.606Z,12.68
2018-04-15T04:53:37.895Z,12.73
2018-04-15T04:56:04.150Z,12.74
2018-04-15T04:58:30.420Z,12.77
2018-04-15T05:00:56.712Z,12.84
2018-04-15T05:03:22.975Z,12.92
2018-04-15T05:05:49.259Z,12.99
2018-04-15T05:08:15.540Z,13.06
2018-04-15T05:10:41.784Z,13.10
2018-04-15T05:13:08.044Z,13.15
2018-04-15T05:15:34.331Z,13.24
2018-04-15T05:18:00.615Z,13.35
2018-04-15T05:20:26.959Z,13.44
2018-04-15T05:22:53.297Z,13.51
2018-04-15T05:25:19.595Z,13.61
2018-04-15T05:27:45.838Z,13.74
2018-04-15T05:30:12.434Z,13.88
2018-04-15T05:32:38.754Z,14.03
2018-04-15T05:35:05.055Z,14.20
2018-04-15T05:37:31.366Z,14.31
2018-04-15T05:39:57.613Z,14.44
2018-04-15T05:42:23.860Z,14.53
2018-04-15T05:44:50.155Z,14.61
2018-04-15T05:47:16.391Z,14.71
2018-04-15T05:49:42.642Z,14.76
2018-04-15T05:52:08.932Z,14.85
2018-04-15T05:54:35.195Z,14.99
2018-04-15T05:57:01.471Z,15.18
2018-04-15T05:59:27.846Z,15.35
2018-04-15T06:01:54.112Z,15.59
2018-04-15T06:04:20.362Z,15.76
2018-04-15T06:06:46.677Z,16.03
2018-04-15T06:09:12.944Z,16.17
2018-04-15T06:11:39.223Z,16.31
2018-04-15T06:14:05.507Z,16.43
2018-04-15T06:16:32.135Z,16.52
2018-04-15T06:18:58.379Z,16.66
2018-04-15T06:21:24.723Z,16.81
2018-04-15T06:23:50.987Z,16.90
2018-04-15T06:26:17.239Z,16.83
2018-04-15T06:28:43.548Z,16.93
2018-04-15T06:31:09.820Z,16.95
2018-04-15T06:33:36.115Z,17.03
2018-04-15T06:36:02.398Z,17.06
2018-04-15T06:38:28.676Z,17.19
2018-04-15T06:40:54.919Z,17.19
2018-04-15T06:43:21.204Z,17.21
2018-04-15T06:45:47.451Z,17.27
2018-04-15T06:48:13.732Z,17.43
2018-04-15T06:50:40.022Z,17.59
2018-04-15T06:53:06.274Z,17.82
2018-04-15T06:55:32.592Z,17.98
2018-04-15T06:57:58.904Z,18.13
2018-04-15T07:00:25.192Z,18.33
2018-04-15T07:02:51.446Z,18.61
2018-04-15T07:05:17.743Z,18.87
2018-04-15T07:07:44.032Z,19.11
2018-04-15T07:10:10.271Z,19.24
2018-04-15T07:12:36.580Z,19.38
2018-04-15T07:15:03.036Z,19.47
2018-04-15T07:17:29.716Z,19.56
2018-04-15T07:19:56.043Z,19.63
2018-04-15T07:22:22.355Z,19.64
2018-04-15T07:24:48.636Z,19.69
2018-04-15T07:27:14.966Z,19.83
2018-04-15T07:29:41.211Z,19.92
2018-04-15T07:32:07.453Z,19.92
2018-04-15T07:34:33.739Z,20.00
2018-04-15T07:37:00.010Z,20.21
2018-04-15T07:39:26.272Z,20.53
2018-04-15T07:41:52.602Z,20.81
2018-04-15T07:44:18.880Z,21.02
2018-04-15T07:46:45.138Z,21.29
2018-04-15T07:49:11.419Z,21.51
2018-04-15T07:51:37.697Z,21.77
2018-04-15T07:54:10.871Z,21.77
2018-04-15T07:56:37.136Z,22.05
2018-04-15T07:59:03.383Z,22.40
2018-04-15T08:01:29.719Z,22.93
2018-04-15T08:03:55.966Z,23.47
2018-04-15T08:06:22.235Z,23.67
2018-04-15T08:08:48.529Z,23.47
2018-04-15T08:11:14.775Z,23.50
2018-04-15T08:13:41.056Z,24.03
2018-04-15T08:16:07.414Z,24.54
2018-04-15T08:18:33.659Z,25.16
2018-04-15T08:20:59.987Z,25.58
2018-04-15T08:23:26.271Z,25.97
2018-04-15T08:25:52.633Z,25.74
2018-04-15T08:28:18.869Z,25.56
2018-04-15T08:30:45.168Z,25.54
2018-04-15T08:33:11.424Z,25.43
2018-04-15T08:35:37.696Z,25.32
2018-04-15T08:38:04.204Z,25.61
2018-04-15T08:40:30.490Z,25.70
2018-04-15T08:42:57.291Z,25.72
2018-04-15T08:45:23.562Z,25.71
2018-04-15T08:47:49.849Z,25.63
2018-04-15T08:50:16.109Z,25.75
2018-04-15T08:52:42.395Z,26.09
2018-04-15T08:55:08.648Z,26.03
2018-04-15T08:57:34.889Z,25.87
2018-04-15T09:00:01.172Z,26.32
2018-04-15T09:02:27.418Z,26.88
2018-04-15T09:04:53.834Z,27.50
2018-04-15T09:07:20.111Z,28.23
2018-04-15T09:09:46.417Z,28.61
2018-04-15T09:12:12.669Z,28.43
2018-04-15T09:14:38.931Z,28.01
2018-04-15T09:17:05.167Z,27.66
2018-04-15T09:19:31.443Z,28.30
2018-04-15T09:21:57.718Z,29.14
2018-04-15T09:24:23.962Z,29.84
2018-04-15T09:26:50.190Z,29.71
2018-04-15T09:29:16.494Z,30.00
2018-04-15T09:31:42.800Z,30.21
2018-04-15T09:34:09.099Z,30.42
2018-04-15T09:36:35.373Z,30.38
2018-04-15T09:39:01.619Z,30.35
2018-04-15T09:41:27.883Z,30.30
2018-04-15T09:43:54.427Z,30.51
2018-04-15T09:46:21.889Z,30.78
2018-04-15T09:48:48.148Z,30.74
2018-04-15T09:51:14.531Z,30.95
2018-04-15T09:53:40.770Z,30.80
2018-04-15T09:56:07.010Z,30.89
2018-04-15T09:58:33.289Z,31.18
2018-04-15T10:01:02.496Z,31.25
2018-04-15T10:03:28.788Z,31.29
2018-04-15T10:05:55.066Z,31.61
2018-04-15T10:08:21.300Z,31.46
2018-04-15T10:10:47.564Z,29.82
2018-04-15T10:13:13.878Z,29.10
2018-04-15T10:15:40.130Z,28.20
2018-04-15T10:18:06.391Z,27.89
2018-04-15T10:20:32.923Z,28.35
2018-04-15T10:22:59.212Z,29.63
2018-04-15T10:25:25.472Z,29.99
2018-04-15T10:27:51.807Z,30.60
2018-04-15T10:30:18.095Z,30.91
2018-04-15T10:32:44.452Z,31.33
2018-04-15T10:35:10.743Z,31.64
2018-04-15T10:37:36.991Z,31.83
2018-04-15T10:40:03.386Z,32.28
2018-04-15T10:42:29.680Z,32.92
2018-04-15T10:44:56.246Z,33.12
2018-04-15T10:47:22.507Z,33.37
2018-04-15T10:49:48.923Z,33.72
2018-04-15T10:52:15.159Z,33.60
2018-04-15T10:54:41.473Z,34.00
2018-04-15T10:57:07.723Z,33.85
2018-04-15T10:59:34.470Z,33.82
2018-04-15T11:02:00.726Z,33.49
2018-04-15T11:04:27.076Z,32.69
2018-04-15T11:06:53.359Z,31.54
2018-04-15T11:09:19.620Z,30.84
2018-04-15T11:11:45.894Z,30.67
2018-04-15T11:14:12.260Z,31.19
2018-04-15T11:16:38.497Z,32.08
2018-04-15T11:19:04.791Z,32.07
2018-04-15T11:21:31.067Z,32.24
2018-04-15T11:23:57.369Z,31.65
2018-04-15T11:26:23.650Z,31.17
2018-04-15T11:28:49.908Z,30.64
2018-04-15T11:31:16.259Z,29.94
2018-04-15T11:33:42.527Z,29.68
2018-04-15T11:36:08.803Z,30.19
2018-04-15T11:38:35.039Z,30.52
2018-04-15T11:41:01.296Z,30.28
2018-04-15T11:43:27.555Z,29.69
2018-04-15T11:45:53.818Z,29.16
2018-04-15T11:48:20.119Z,28.64
2018-04-15T11:50:46.379Z,28.43
2018-04-15T11:53:12.617Z,28.50
2018-04-15T11:55:38.942Z,28.48
2018-04-15T11:58:05.194Z,28.72
2018-04-15T12:00:31.419Z,28.84
2018-04-15T12:02:57.682Z,29.25
2018-04-15T12:05:23.967Z,29.65
2018-04-15T12:07:50.207Z,30.34
2018-04-15T12:10:16.522Z,30.80
2018-04-15T12:12:42.767Z,31.28
2018-04-15T12:15:09.015Z,31.11
2018-04-15T12:17:35.278Z,30.44
2018-04-15T12:20:01.539Z,30.70
2018-04-15T12:22:27.775Z,31.36
2018-04-15T12:24:54.075Z,32.61
2018-04-15T12:27:20.337Z,33.04
2018-04-15T12:29:46.583Z,33.57
2018-04-15T12:32:12.866Z,34.16
2018-04-15T12:34:39.137Z,34.42
2018-04-15T12:37:05.475Z,34.52
2018-04-15T12:39:31.744Z,35.09
2018-04-15T12:41:57.980Z,35.24
2018-04-15T12:44:24.239Z,36.08
2018-04-15T12:46:50.560Z,36.32
2018-04-15T12:49:16.802Z,36.91
2018-04-15T12:51:43.033Z,37.47
2018-04-15T12:54:09.302Z,37.73
2018-04-15T12:56:35.530Z,38.30
2018-04-15T12:59:01.775Z,38.92
2018-04-15T13:01:28.095Z,39.53
2018-04-15T13:03:54.374Z,39.75
2018-04-15T13:06:20.607Z,39.40
2018-04-15T13:08:46.888Z,38.64
2018-04-15T13:11:13.122Z,37.49
2018-04-15T13:13:39.366Z,36.51
2018-04-15T13:16:05.643Z,36.48
2018-04-15T13:18:31.882Z,36.38
2018-04-15T13:20:58.119Z,35.89
2018-04-15T13:23:24.399Z,34.76
2018-04-15T13:25:50.725Z,34.73
2018-04-15T13:28:16.962Z,34.37
2018-04-15T13:30:43.256Z,34.80
2018-04-15T13:33:09.518Z,35.84
2018-04-15T13:35:35.784Z,36.43
2018-04-15T13:38:02.059Z,36.46
2018-04-15T13:40:28.321Z,36.13
2018-04-15T13:42:54.558Z,36.83
2018-04-15T13:45:20.834Z,37.42
2018-04-15T13:47:47.076Z,38.34
2018-04-15T13:50:13.319Z,39.00
2018-04-15T13:52:39.607Z,39.11
2018-04-15T13:55:05.855Z,39.22
2018-04-15T13:57:32.224Z,39.02
2018-04-15T13:59:58.508Z,38.69
2018-04-15T14:02:24.743Z,38.74
2018-04-15T14:04:50.984Z,39.28
2018-04-15T14:07:17.272Z,39.45
2018-04-15T14:09:43.515Z,39.44
2018-04-15T14:12:09.775Z,38.56
2018-04-15T14:14:36.037Z,36.95
2018-04-15T14:17:02.280Z,35.64
2018-04-15T14:19:28.530Z,34.82
2018-04-15T14:21:54.860Z,34.03
2018-04-15T14:24:21.092Z,33.41
2018-04-15T14:26:47.344Z,32.30
2018-04-15T14:29:13.620Z,32.10
2018-04-15T14:31:39.855Z,33.04
2018-04-15T14:34:06.111Z,33.02
2018-04-15T14:36:32.411Z,33.52
2018-04-15T14:38:58.693Z,33.42
2018-04-15T14:41:24.999Z,33.06
2018-04-15T14:43:51.271Z,32.78
2018-04-15T14:46:17.531Z,31.96
2018-04-15T14:48:43.776Z,30.93
2018-04-15T14:51:10.043Z,30.49
2018-04-15T14:53:36.283Z,30.12
2018-04-15T14:56:02.548Z,30.52
2018-04-15T14:58:28.927Z,30.44
2018-04-15T15:00:55.172Z,30.20
2018-04-15T15:03:21.455Z,30.23
2018-04-15T15:05:47.795Z,29.82
2018-04-15T15:08:14.039Z,29.61
2018-04-15T15:10:40.459Z,29.24
2018-04-15T15:13:06.724Z,29.45
2018-04-15T15:15:32.974Z,29.38
2018-04-15T15:17:59.247Z,28.97
2018-04-15T15:20:25.522Z,29.08
2018-04-15T15:22:51.757Z,28.79
2018-04-15T15:25:17.987Z,28.19
2018-04-15T15:27:44.295Z,27.77
2018-04-15T15:30:10.538Z,27.80
2018-04-15T15:32:36.842Z,27.87
2018-04-15T15:35:03.137Z,27.35
2018-04-15T15:37:29.379Z,27.09
2018-04-15T15:39:55.617Z,27.00
2018-04-15T15:42:21.889Z,26.85
2018-04-15T15:44:48.230Z,26.51
2018-04-15T15:47:14.471Z,26.43
2018-04-15T15:49:40.768Z,26.43
2018-04-15T15:52:07.015Z,26.38
2018-04-15T15:54:33.499Z,26.17
2018-04-15T15:56:59.781Z,25.95
2018-04-15T15:59:26.096Z,25.72
2018-04-15T16:01:52.336Z,25.61
2018-04-15T16:04:18.624Z,25.66
2018-04-15T16:06:44.926Z,25.55
2018-04-15T16:09:11.166Z,25.54
2018-04-15T16:11:37.458Z,25.48
2018-04-15T16:14:03.731Z,25.36
2018-04-15T16:16:30.032Z,25.17
2018-04-15T16:18:56.331Z,24.96
2018-04-15T16:21:22.591Z,24.77
2018-04-15T16:23:48.998Z,24.63
2018-04-15T16:26:15.282Z,24.45
2018-04-15T16:28:41.550Z,24.32
2018-04-15T16:31:07.929Z,24.31
2018-04-15T16:33:34.210Z,24.30
2018-04-15T16:36:00.527Z,24.30
2018-04-15T16:38:26.774Z,24.26
2018-04-15T16:40:53.104Z,24.36
2018-04-15T16:43:19.383Z,24.37
2018-04-15T16:45:45.628Z,24.32
2018-04-15T16:48:11.910Z,24.27
2018-04-15T16:50:38.163Z,24.18
2018-04-15T16:53:04.531Z,23.99
2018-04-15T16:55:30.883Z,23.94
2018-04-15T16:57:57.126Z,23.95
2018-04-15T17:00:23.420Z,23.88
2018-04-15T17:02:49.695Z,23.79
2018-04-15T17:05:15.949Z,23.77
2018-04-15T17:07:42.183Z,23.68
2018-04-15T17:10:09.447Z,23.58
2018-04-15T17:12:35.698Z,23.54
2018-04-15T17:15:01.984Z,23.48
2018-04-15T17:17:28.295Z,23.41
2018-04-15T17:19:54.742Z,23.32
2018-04-15T17:22:21.004Z,23.22
2018-04-15T17:24:47.322Z,23.12
2018-04-15T17:27:13.600Z,23.13
2018-04-15T17:29:39.844Z,23.02
2018-04-15T17:32:06.127Z,22.91
2018-04-15T17:34:32.393Z,22.94
2018-04-15T17:36:58.638Z,22.85
2018-04-15T17:39:24.961Z,22.69
2018-04-15T17:41:51.242Z,22.62
2018-04-15T17:44:17.497Z,22.53
2018-04-15T17:46:43.799Z,22.52
2018-04-15T17:49:10.036Z,22.48
2018-04-15T17:51:36.278Z,22.36
2018-04-15T17:54:02.593Z,22.30
2018-04-15T17:56:28.850Z,22.24
2018-04-15T17:58:55.134Z,22.16
2018-04-15T18:01:21.423Z,22.06
2018-04-15T18:03:47.674Z,22.02
2018-04-15T18:06:13.917Z,21.95
2018-04-15T18:08:40.187Z,21.94
2018-04-15T18:11:06.427Z,21.89
2018-04-15T18:13:32.675Z,21.76
2018-04-15T18:15:58.960Z,21.72
2018-04-15T18:18:25.211Z,21.68
2018-04-15T18:20:51.479Z,21.48
2018-04-15T18:23:17.765Z,21.42
2018-04-15T18:25:44.023Z,21.42
2018-04-15T18:28:10.342Z,21.27
2018-04-15T18:30:36.637Z,21.14
2018-04-15T18:33:02.901Z,21.07
2018-04-15T18:35:29.134Z,21.06
2018-04-15T18:37:55.495Z,21.04
2018-04-15T18:40:21.775Z,20.98
2018-04-15T18:42:48.029Z,20.93
2018-04-15T18:45:14.310Z,20.86
2018-04-15T18:47:40.587Z,20.82
2018-04-15T18:50:06.884Z,20.79
2018-04-15T18:52:33.158Z,20.75
2018-04-15T18:54:59.479Z,20.69
2018-04-15T18:57:25.734Z,20.63
2018-04-15T18:59:52.036Z,20.61
2018-04-15T19:02:18.283Z,20.60
2018-04-15T19:04:44.570Z,20.59
2018-04-15T19:07:10.843Z,20.53
2018-04-15T19:09:37.088Z,20.51
2018-04-15T19:12:03.330Z,20.48
2018-04-15T19:14:29.617Z,20.41
2018-04-15T19:16:55.899Z,20.35
2018-04-15T19:19:22.180Z,20.32
2018-04-15T19:21:48.601Z,20.36
2018-04-15T19:24:14.848Z,20.33
2018-04-15T19:26:41.123Z,20.24
2018-04-15T19:29:07.403Z,20.27
2018-04-15T19:31:33.645Z,20.20
2018-04-15T19:33:59.880Z,20.09
2018-04-15T19:36:26.188Z,20.03
2018-04-15T19:38:52.439Z,19.98
2018-04-15T19:41:18.706Z,19.77
2018-04-15T19:43:45.040Z,19.56
2018-04-15T19:46:11.339Z,19.38
2018-04-15T19:48:37.735Z,19.37
2018-04-15T19:51:04.077Z,19.39
2018-04-15T19:53:30.311Z,19.41
2018-04-15T19:55:56.604Z,19.39
2018-04-15T19:58:22.883Z,19.34
2018-04-15T20:00:49.134Z,19.28
2018-04-15T20:03:15.366Z,19.29
2018-04-15T20:05:41.657Z,19.42
2018-04-15T20:08:07.902Z,19.47
2018-04-15T20:10:34.158Z,19.51
2018-04-15T20:13:00.444Z,19.52
2018-04-15T20:15:26.678Z,19.58
2018-04-15T20:17:53.019Z,19.57
2018-04-15T20:20:19.299Z,19.48
2018-04-15T20:22:45.540Z,19.30
2018-04-15T20:25:11.782Z,19.08
2018-04-15T20:27:38.047Z,19.07
2018-04-15T20:30:04.316Z,19.10
2018-04-15T20:32:30.580Z,19.13
2018-04-15T20:34:57.021Z,19.16
2018-04-15T20:37:23.467Z,19.19
2018-04-15T20:39:49.751Z,19.14
2018-04-15T20:42:16.022Z,19.15
2018-04-15T20:44:42.307Z,19.16
2018-04-15T20:47:08.566Z,19.13
2018-04-15T20:49:34.864Z,19.20
2018-04-15T20:52:01.110Z,19.18
2018-04-15T20:54:27.370Z,19.17
2018-04-15T20:56:53.699Z,19.22
2018-04-15T20:59:19.930Z,19.22
2018-04-15T21:01:46.187Z,19.18
2018-04-15T21:04:12.471Z,19.19
2018-04-15T21:06:38.897Z,19.15
2018-04-15T21:09:06.972Z,19.01
2018-04-15T21:11:33.288Z,18.91
2018-04-15T21:13:59.552Z,18.93
2018-04-15T21:16:25.792Z,18.94
2018-04-15T21:18:52.060Z,18.98
2018-04-15T21:21:18.541Z,18.96
2018-04-15T21:23:44.800Z,18.95
2018-04-15T21:26:11.091Z,18.95
2018-04-15T21:28:37.331Z,18.97
2018-04-15T21:31:03.568Z,18.97
2018-04-15T21:33:29.851Z,18.99
2018-04-15T21:35:56.099Z,18.97
2018-04-15T21:38:22.424Z,18.97
2018-04-15T21:40:48.722Z,18.77
2018-04-15T21:43:15.088Z,18.68
2018-04-15T21:45:41.365Z,18.74
2018-04-15T21:48:07.671Z,18.79
2018-04-15T21:50:34.000Z,18.85
2018-04-15T21:53:00.300Z,18.88
2018-04-15T21:55:26.576Z,18.91
2018-04-15T21:57:52.833Z,18.95
2018-04-15T22:00:19.108Z,19.02
2018-04-15T22:02:45.423Z,19.07
2018-04-15T22:05:11.690Z,19.06
2018-04-15T22:07:37.922Z,19.03
2018-04-15T22:10:04.198Z,18.99
2018-04-15T22:12:30.431Z,18.95
2018-04-15T22:14:56.680Z,18.96
2018-04-15T22:17:22.966Z,18.86
2018-04-15T22:19:49.215Z,18.74
2018-04-15T22:22:15.462Z,18.66
2018-04-15T22:24:41.799Z,18.63
2018-04-15T22:27:08.083Z,18.67
2018-04-15T22:29:34.335Z,18.73
2018-04-15T22:32:00.610Z,18.76
2018-04-15T22:34:26.858Z,18.71
2018-04-15T22:36:53.120Z,18.54
2018-04-15T22:39:19.392Z,18.46
2018-04-15T22:41:45.629Z,18.42
2018-04-15T22:44:11.895Z,18.47
2018-04-15T22:46:38.171Z,18.47
2018-04-15T22:49:10.546Z,18.55
2018-04-15T22:51:36.828Z,18.57
2018-04-15T22:54:03.112Z,18.48
2018-04-15T22:56:35.255Z,18.44
2018-04-15T22:59:01.498Z,18.46
2018-04-15T23:01:27.797Z,18.49
2018-04-15T23:03:54.042Z,18.48
2018-04-15T23:06:20.307Z,18.47
2018-04-15T23:08:46.586Z,18.52
2018-04-15T23:11:12.820Z,18.09
2018-04-15T23:13:39.051Z,18.22
2018-04-15T23:16:05.355Z,18.40
2018-04-15T23:18:31.658Z,18.46
2018-04-15T23:20:57.901Z,18.51
2018-04-15T23:23:25.155Z,18.35
2018-04-15T23:25:51.399Z,18.33
2018-04-15T23:28:17.631Z,18.40
2018-04-15T23:30:43.926Z,18.39
2018-04-15T23:33:10.163Z,18.36
2018-04-15T23:35:36.415Z,18.26
2018-04-15T23:38:02.699Z,18.27
2018-04-15T23:40:28.935Z,18.30
2018-04-15T23:42:55.200Z,18.30
2018-04-15T23:45:21.466Z,18.30
2018-04-15T23:47:47.711Z,18.29
2018-04-15T23:50:13.984Z,18.34
2018-04-15T23:52:40.263Z,18.38
2018-04-15T23:55:06.531Z,18.48
2018-04-15T23:57:32.876Z,18.48
2018-04-15T23:59:59.176Z,18.46
